Time;durP1;ratioP1;P1;durP2;ratioP2;P2;SDS_P1;SDS_P2;PMS_P1;PMS_P2;Temp;Humidity;BMP_temperature;BMP_pressure;BME280_temperature;BME280_humidity;BME280_pressure;Samples;Min_cycle;Max_cycle;Signal;HPM_P1;HPM_P2
2021/06/23 00:01:44;;;;;;;39.10;8.48;;;;;;;;;;6163131;23;20421;-85
2021/06/23 00:04:10;;;;;;;30.08;9.32;;;;;;;;;;6160982;23;20000;-79
2021/06/23 00:06:36;;;;;;;29.08;8.23;;;;;;;;;;6189894;23;20016;-77
2021/06/23 00:09:04;;;;;;;32.28;9.23;;;;;;;;;;6189739;23;20008;-78
2021/06/23 00:11:38;;;;;;;31.73;9.60;;;;;;;;;;6190027;23;20008;-78
2021/06/23 00:14:04;;;;;;;30.23;8.95;;;;;;;;;;6189955;23;20008;-77
2021/06/23 00:28:11;;;;;;;27.52;9.25;;;;;;;;;;5105877;27;20979;-79
2021/06/23 00:30:37;;;;;;;38.20;8.65;;;;;;;;;;5107314;28;20103;-84
2021/06/23 00:33:13;;;;;;;28.35;8.75;;;;;;;;;;5105550;28;20055;-78
2021/06/23 00:35:39;;;;;;;30.23;8.95;;;;;;;;;;5105163;28;20020;-78
2021/06/23 00:38:05;;;;;;;32.20;9.07;;;;;;;;;;5105465;28;20020;-78
2021/06/23 00:40:31;;;;;;;28.58;8.25;;;;;;;;;;5106613;28;20463;-85
2021/06/23 00:42:57;;;;;;;30.80;8.88;;;;;;;;;;5106806;28;20097;-78
2021/06/23 00:45:24;;;;;;;30.83;8.80;;;;;;;;;;5105195;28;20023;-79
2021/06/23 00:47:53;;;;;;;51.30;11.13;;;;;;;;;;5106638;28;20479;-78
2021/06/23 00:50:19;;;;;;;37.20;9.02;;;;;;;;;;5106466;28;20103;-78
2021/06/23 00:52:46;;;;;;;38.05;9.88;;;;;;;;;;5105735;28;20479;-79
2021/06/23 00:55:20;;;;;;;31.65;8.57;;;;;;;;;;5105446;28;20574;-78
2021/06/23 00:57:47;;;;;;;84.93;13.05;;;;;;;;;;5105010;28;20043;-78
2021/06/23 01:00:13;;;;;;;29.63;8.85;;;;;;;;;;5106546;28;20366;-78
2021/06/23 01:02:39;;;;;;;31.48;9.43;;;;;;;;;;5106701;28;20031;-86
2021/06/23 01:05:06;;;;;;;37.17;10.60;;;;;;;;;;5106519;28;20020;-78
2021/06/23 01:07:32;;;;;;;40.03;9.95;;;;;;;;;;5104888;28;20027;-78
2021/06/23 01:09:58;;;;;;;35.03;9.38;;;;;;;;;;5104439;28;20073;-78
2021/06/23 01:12:25;;;;;;;29.88;9.82;;;;;;;;;;5106551;28;20032;-78
2021/06/23 01:14:53;;;;;;;31.10;9.85;;;;;;;;;;5105984;28;20042;-78
2021/06/23 01:17:20;;;;;;;39.88;10.90;;;;;;;;;;5104430;28;20032;-78
2021/06/23 01:19:48;;;;;;;31.02;10.77;;;;;;;;;;5085892;28;20031;-79
2021/06/23 01:22:17;;;;;;;32.42;9.93;;;;;;;;;;5085553;28;20266;-79
2021/06/23 01:24:44;;;;;;;32.45;9.65;;;;;;;;;;5085405;28;20380;-78
2021/06/23 01:27:10;;;;;;;26.90;10.07;;;;;;;;;;5083065;28;20210;-78
2021/06/23 01:29:37;;;;;;;40.13;10.77;;;;;;;;;;5070312;28;20065;-79
2021/06/23 01:32:04;;;;;;;40.25;9.70;;;;;;;;;;5072192;28;20068;-78
2021/06/23 01:34:30;;;;;;;33.85;10.05;;;;;;;;;;5072244;28;20027;-78
2021/06/23 01:36:56;;;;;;;29.40;9.60;;;;;;;;;;5072531;28;20056;-78
2021/06/23 01:39:22;;;;;;;31.17;9.35;;;;;;;;;;5070247;28;20021;-79
2021/06/23 01:41:48;;;;;;;26.35;9.98;;;;;;;;;;5071771;28;20566;-78
2021/06/23 01:44:15;;;;;;;35.15;10.00;;;;;;;;;;5071675;28;20072;-79
2021/06/23 01:46:41;;;;;;;37.65;10.15;;;;;;;;;;5071908;28;20040;-78
2021/06/23 01:49:07;;;;;;;34.63;9.82;;;;;;;;;;5070320;28;20063;-78
2021/06/23 01:51:33;;;;;;;37.05;9.90;;;;;;;;;;5071680;28;20072;-78
2021/06/23 01:54:00;;;;;;;35.47;9.73;;;;;;;;;;5071653;28;20434;-78
2021/06/23 01:56:29;;;;;;;32.13;9.52;;;;;;;;;;5070268;28;20464;-78
2021/06/23 01:58:55;;;;;;;33.42;10.85;;;;;;;;;;5071563;28;20383;-78
2021/06/23 02:01:21;;;;;;;34.17;10.55;;;;;;;;;;5071537;28;20468;-78
2021/06/23 02:03:47;;;;;;;28.73;9.63;;;;;;;;;;5071187;28;20480;-78
2021/06/23 02:06:26;;;;;;;33.83;9.65;;;;;;;;;;5069026;28;20115;-78
2021/06/23 02:09:00;;;;;;;36.20;10.30;;;;;;;;;;5071506;28;20126;-78
2021/06/23 02:11:34;;;;;;;37.67;9.90;;;;;;;;;;5071568;28;20024;-78
2021/06/23 02:14:11;;;;;;;38.97;10.82;;;;;;;;;;5069397;28;20086;-77
2021/06/23 02:16:38;;;;;;;35.97;10.35;;;;;;;;;;5071387;28;20105;-78
2021/06/23 02:19:05;;;;;;;36.47;10.70;;;;;;;;;;5071469;28;20119;-78
2021/06/23 02:21:32;;;;;;;31.05;10.00;;;;;;;;;;5071033;28;20059;-79
2021/06/23 02:24:00;;;;;;;41.15;9.77;;;;;;;;;;5070874;28;20077;-78
2021/06/23 02:26:26;;;;;;;28.42;10.45;;;;;;;;;;5070931;28;20403;-78
2021/06/23 02:28:53;;;;;;;38.20;9.70;;;;;;;;;;5069007;28;20464;-79
2021/06/23 02:31:19;;;;;;;29.33;9.80;;;;;;;;;;5071352;28;20116;-79
2021/06/23 02:33:46;;;;;;;39.15;10.18;;;;;;;;;;5071050;28;20028;-78
2021/06/23 02:36:12;;;;;;;39.38;10.40;;;;;;;;;;5069481;28;20021;-78
2021/06/23 02:38:38;;;;;;;24.92;9.27;;;;;;;;;;5070767;28;20024;-78
2021/06/23 02:41:05;;;;;;;32.45;9.60;;;;;;;;;;5070156;28;20483;-78
2021/06/23 02:43:31;;;;;;;32.20;9.98;;;;;;;;;;5070663;28;20051;-78
2021/06/23 02:45:57;;;;;;;31.70;10.50;;;;;;;;;;5070830;28;20029;-78
2021/06/23 02:48:25;;;;;;;30.75;9.88;;;;;;;;;;5069003;28;20024;-79
2021/06/23 02:50:58;;;;;;;34.70;9.32;;;;;;;;;;5070569;28;20422;-82
2021/06/23 02:53:26;;;;;;;33.85;9.82;;;;;;;;;;5070167;28;20534;-78
2021/06/23 02:55:53;;;;;;;30.95;8.73;;;;;;;;;;5070148;28;20544;-78
2021/06/23 02:58:19;;;;;;;35.40;9.88;;;;;;;;;;5068831;28;20103;-79
2021/06/23 03:00:46;;;;;;;31.98;9.55;;;;;;;;;;5070618;28;20025;-79
2021/06/23 03:03:12;;;;;;;31.58;9.15;;;;;;;;;;5070250;28;20028;-79
2021/06/23 03:05:39;;;;;;;34.00;8.75;;;;;;;;;;5070491;28;20411;-78
2021/06/23 03:08:05;;;;;;;34.67;9.63;;;;;;;;;;5070578;28;20101;-78
2021/06/23 03:10:31;;;;;;;29.00;9.80;;;;;;;;;;5068689;28;20069;-78
2021/06/23 03:12:57;;;;;;;27.90;9.45;;;;;;;;;;5070275;28;20032;-78
2021/06/23 03:15:23;;;;;;;29.65;9.18;;;;;;;;;;5070664;28;20070;-79
2021/06/23 03:17:50;;;;;;;31.38;10.25;;;;;;;;;;5068477;28;20065;-78
2021/06/23 03:20:16;;;;;;;28.70;9.15;;;;;;;;;;5069769;28;20468;-79
2021/06/23 03:22:42;;;;;;;38.42;10.07;;;;;;;;;;5069982;28;20020;-79
2021/06/23 03:25:09;;;;;;;34.13;9.18;;;;;;;;;;5069812;28;20486;-78
2021/06/23 03:27:35;;;;;;;29.98;8.98;;;;;;;;;;5067983;28;20052;-78
2021/06/23 03:30:01;;;;;;;36.58;9.73;;;;;;;;;;5069715;28;20107;-78
2021/06/23 03:32:27;;;;;;;26.48;8.27;;;;;;;;;;5068149;28;20085;-78
2021/06/23 03:34:53;;;;;;;23.25;7.90;;;;;;;;;;5070955;28;20055;-78
2021/06/23 03:37:19;;;;;;;33.50;8.25;;;;;;;;;;5069531;28;20416;-78
2021/06/23 03:39:46;;;;;;;24.52;7.13;;;;;;;;;;5069609;28;20381;-79
2021/06/23 03:42:12;;;;;;;29.00;7.60;;;;;;;;;;5069891;28;20132;-79
2021/06/23 03:44:39;;;;;;;29.73;7.50;;;;;;;;;;5068294;28;20457;-79
2021/06/23 03:47:05;;;;;;;29.38;8.63;;;;;;;;;;5069950;28;20423;-86
2021/06/23 03:49:31;;;;;;;35.70;8.02;;;;;;;;;;5070163;28;20024;-78
2021/06/23 03:51:58;;;;;;;29.67;8.25;;;;;;;;;;5068008;28;20056;-79
2021/06/23 03:54:25;;;;;;;27.92;8.13;;;;;;;;;;5069491;28;20427;-79
2021/06/23 03:56:51;;;;;;;28.17;8.98;;;;;;;;;;5069539;28;20476;-79
2021/06/23 03:59:17;;;;;;;27.20;9.10;;;;;;;;;;5069265;28;20531;-80
2021/06/23 04:01:43;;;;;;;28.80;9.25;;;;;;;;;;5068114;28;20535;-80
2021/06/23 04:04:09;;;;;;;34.13;9.23;;;;;;;;;;5069473;28;20425;-87
2021/06/23 04:06:35;;;;;;;34.88;9.65;;;;;;;;;;5069739;28;20549;-79
2021/06/23 04:09:01;;;;;;;31.23;10.75;;;;;;;;;;5069975;28;20036;-78
2021/06/23 04:11:28;;;;;;;41.03;10.57;;;;;;;;;;5068236;28;20075;-78
2021/06/23 04:13:54;;;;;;;29.50;10.30;;;;;;;;;;5069644;28;20023;-78
2021/06/23 04:16:20;;;;;;;37.05;11.02;;;;;;;;;;5069589;28;20031;-79
2021/06/23 04:18:46;;;;;;;30.15;13.70;;;;;;;;;;5069089;28;20025;-80
2021/06/23 04:21:12;;;;;;;25.13;10.20;;;;;;;;;;5068356;28;20031;-79
2021/06/23 04:23:38;;;;;;;23.77;9.63;;;;;;;;;;5069296;28;20027;-78
2021/06/23 04:26:04;;;;;;;25.33;11.25;;;;;;;;;;5069336;28;21001;-80
2021/06/23 04:28:31;;;;;;;20.75;9.60;;;;;;;;;;5069065;28;20100;-79
2021/06/23 04:30:57;;;;;;;30.27;12.23;;;;;;;;;;5069208;28;20392;-78
2021/06/23 04:33:23;;;;;;;28.25;11.18;;;;;;;;;;5068040;28;20028;-79
2021/06/23 04:35:50;;;;;;;30.85;12.48;;;;;;;;;;5069335;28;20020;-79
2021/06/23 04:38:17;;;;;;;34.08;12.02;;;;;;;;;;5069229;28;20027;-78
2021/06/23 04:40:43;;;;;;;38.22;13.23;;;;;;;;;;5069373;28;20051;-79
2021/06/23 04:43:09;;;;;;;28.42;10.90;;;;;;;;;;5069184;28;20025;-87
2021/06/23 04:45:35;;;;;;;29.23;11.45;;;;;;;;;;5067565;28;20020;-85
2021/06/23 04:48:02;;;;;;;30.80;10.52;;;;;;;;;;5064802;28;20025;-78
2021/06/23 04:50:28;;;;;;;31.35;11.07;;;;;;;;;;5068504;28;20025;-78
2021/06/23 04:52:54;;;;;;;33.70;10.27;;;;;;;;;;5068698;28;20020;-79
2021/06/23 04:55:20;;;;;;;37.10;10.65;;;;;;;;;;5068911;28;20027;-79
2021/06/23 04:57:46;;;;;;;29.40;10.15;;;;;;;;;;5065609;28;20029;-79
2021/06/23 05:00:13;;;;;;;37.78;10.98;;;;;;;;;;5057516;28;20173;-78
2021/06/23 05:02:39;;;;;;;35.47;10.02;;;;;;;;;;5061716;28;20099;-86
2021/06/23 05:05:06;;;;;;;33.00;10.25;;;;;;;;;;5064668;28;20024;-79
2021/06/23 05:07:32;;;;;;;30.67;9.95;;;;;;;;;;5065245;28;20128;-78
2021/06/23 05:09:58;;;;;;;25.77;9.80;;;;;;;;;;5063061;28;20498;-78
2021/06/23 05:12:28;;;;;;;36.60;10.38;;;;;;;;;;5063986;28;20031;-78
2021/06/23 05:14:54;;;;;;;34.28;11.35;;;;;;;;;;5064515;28;20032;-78
2021/06/23 05:17:20;;;;;;;29.23;10.65;;;;;;;;;;5064923;28;20100;-78
2021/06/23 05:19:47;;;;;;;36.78;13.27;;;;;;;;;;5064395;28;20059;-79
2021/06/23 05:22:13;;;;;;;42.22;14.52;;;;;;;;;;5063091;28;20028;-79
2021/06/23 05:24:40;;;;;;;27.85;12.00;;;;;;;;;;5064730;28;20404;-79
2021/06/23 05:27:10;;;;;;;32.83;11.25;;;;;;;;;;5064446;28;20071;-78
2021/06/23 05:29:36;;;;;;;34.28;10.60;;;;;;;;;;5064997;28;20023;-78
2021/06/23 05:32:02;;;;;;;27.10;11.27;;;;;;;;;;5064071;28;20033;-79
2021/06/23 05:34:29;;;;;;;32.17;10.65;;;;;;;;;;5062944;28;20100;-80
2021/06/23 05:36:55;;;;;;;34.20;10.60;;;;;;;;;;5063274;28;20066;-79
2021/06/23 05:39:22;;;;;;;28.52;9.93;;;;;;;;;;5064205;28;20627;-79
2021/06/23 05:41:48;;;;;;;27.98;9.68;;;;;;;;;;5064637;28;20029;-78
2021/06/23 05:44:14;;;;;;;25.13;8.05;;;;;;;;;;5062619;28;20028;-79
2021/06/23 05:46:40;;;;;;;29.88;7.78;;;;;;;;;;5063530;28;20071;-78
2021/06/23 05:49:06;;;;;;;32.30;9.25;;;;;;;;;;5064099;28;20093;-78
2021/06/23 05:51:33;;;;;;;29.52;7.82;;;;;;;;;;5064458;28;20457;-79
2021/06/23 05:53:59;;;;;;;24.27;7.93;;;;;;;;;;5064098;28;20012;-79
2021/06/23 05:56:25;;;;;;;29.70;7.65;;;;;;;;;;5062621;28;20020;-78
2021/06/23 05:58:51;;;;;;;43.38;8.25;;;;;;;;;;5064152;28;20024;-78
2021/06/23 06:01:17;;;;;;;24.50;7.75;;;;;;;;;;5063625;28;20536;-79
2021/06/23 06:03:43;;;;;;;31.90;8.05;;;;;;;;;;5063921;28;20036;-79
2021/06/23 06:06:10;;;;;;;22.52;7.57;;;;;;;;;;5063477;28;20495;-78
2021/06/23 06:08:36;;;;;;;22.45;8.38;;;;;;;;;;5062190;28;20029;-78
2021/06/23 06:11:02;;;;;;;24.17;7.50;;;;;;;;;;5063932;28;20051;-78
2021/06/23 06:13:28;;;;;;;41.20;9.77;;;;;;;;;;5063416;28;20044;-79
2021/06/23 06:15:54;;;;;;;216.52;26.88;;;;;;;;;;5062287;28;20025;-78
2021/06/23 06:18:23;;;;;;;56.30;11.50;;;;;;;;;;5063023;28;20074;-79
2021/06/23 06:20:49;;;;;;;26.83;9.15;;;;;;;;;;5063530;28;20017;-78
2021/06/23 06:23:16;;;;;;;31.90;10.20;;;;;;;;;;5063620;28;20021;-79
2021/06/23 06:25:42;;;;;;;32.17;9.35;;;;;;;;;;5061910;28;20027;-79
2021/06/23 06:28:08;;;;;;;26.33;7.45;;;;;;;;;;5063102;28;20044;-78
2021/06/23 06:30:34;;;;;;;29.13;8.77;;;;;;;;;;5063374;28;20021;-78
2021/06/23 06:33:00;;;;;;;24.85;8.30;;;;;;;;;;5063770;28;20233;-79
2021/06/23 06:35:26;;;;;;;30.35;8.55;;;;;;;;;;5061870;28;20020;-79
2021/06/23 06:37:55;;;;;;;29.50;9.70;;;;;;;;;;5063523;28;20587;-79
2021/06/23 06:40:21;;;;;;;30.33;10.82;;;;;;;;;;5062976;28;20032;-79
2021/06/23 06:42:47;;;;;;;32.75;10.10;;;;;;;;;;5063471;28;20439;-79
2021/06/23 06:45:13;;;;;;;26.33;9.57;;;;;;;;;;5062912;28;20098;-78
2021/06/23 06:47:40;;;;;;;38.35;10.40;;;;;;;;;;5060202;28;20040;-78
2021/06/23 06:50:06;;;;;;;30.25;9.63;;;;;;;;;;5063029;28;20020;-78
2021/06/23 06:52:32;;;;;;;32.88;9.68;;;;;;;;;;5062903;28;20028;-78
2021/06/23 06:54:59;;;;;;;34.22;9.73;;;;;;;;;;5059013;28;20156;-78
2021/06/23 06:57:25;;;;;;;25.67;9.30;;;;;;;;;;5046374;28;20031;-78
2021/06/23 06:59:51;;;;;;;38.20;10.80;;;;;;;;;;5043229;28;20027;-79
2021/06/23 07:02:17;;;;;;;23.67;9.15;;;;;;;;;;5049000;28;20036;-78
2021/06/23 07:04:43;;;;;;;27.25;9.38;;;;;;;;;;5044127;28;20071;-78
2021/06/23 07:07:09;;;;;;;18.50;8.15;;;;;;;;;;5043814;28;20043;-78
2021/06/23 07:09:36;;;;;;;33.08;8.82;;;;;;;;;;5044526;28;20039;-78
2021/06/23 07:12:02;;;;;;;29.50;9.05;;;;;;;;;;5044785;28;20139;-78
2021/06/23 07:14:28;;;;;;;35.17;8.95;;;;;;;;;;5044098;28;20230;-78
2021/06/23 07:16:54;;;;;;;35.65;8.57;;;;;;;;;;5044995;28;20461;-78
2021/06/23 07:19:21;;;;;;;21.27;7.93;;;;;;;;;;5045976;28;20488;-79
2021/06/23 07:21:47;;;;;;;32.83;7.85;;;;;;;;;;5046649;28;20038;-79
2021/06/23 07:24:18;;;;;;;24.75;7.85;;;;;;;;;;5049706;28;20580;-79
2021/06/23 07:26:45;;;;;;;25.48;7.50;;;;;;;;;;5045454;28;20091;-80
2021/06/23 07:29:12;;;;;;;27.48;7.93;;;;;;;;;;5044597;28;20017;-78
2021/06/23 07:31:44;;;;;;;24.75;7.38;;;;;;;;;;5043587;28;20032;-79
2021/06/23 07:36:38;;;;;;;28.08;7.47;;;;;;;;;;5043694;28;20488;-80
2021/06/23 07:39:07;;;;;;;27.17;7.75;;;;;;;;;;5042987;28;20052;-79
2021/06/23 07:41:34;;;;;;;30.02;8.00;;;;;;;;;;5041466;28;20696;-79
2021/06/23 07:44:00;;;;;;;37.13;8.43;;;;;;;;;;5042797;28;20021;-82
2021/06/23 07:46:28;;;;;;;28.33;9.18;;;;;;;;;;5043885;28;20060;-78
2021/06/23 07:48:56;;;;;;;34.05;8.20;;;;;;;;;;5046146;28;20122;-79
2021/06/23 08:10:36;;;;;;;32.22;8.35;;;;;;;;;;5052423;28;20658;-79
2021/06/23 08:13:02;;;;;;;24.25;8.02;;;;;;;;;;5045282;28;20032;-78
2021/06/23 08:15:30;;;;;;;31.40;8.45;;;;;;;;;;5043020;28;20847;-79
2021/06/23 08:17:56;;;;;;;37.25;9.07;;;;;;;;;;5040922;28;20017;-78
2021/06/23 08:20:23;;;;;;;25.33;7.47;;;;;;;;;;5043492;28;20063;-78
2021/06/23 08:22:49;;;;;;;33.42;8.80;;;;;;;;;;5048586;28;20036;-79
2021/06/23 08:25:16;;;;;;;31.23;7.30;;;;;;;;;;5051338;28;20601;-79
2021/06/23 08:27:42;;;;;;;21.65;6.65;;;;;;;;;;5042581;28;20514;-78
2021/06/23 08:30:10;;;;;;;28.60;8.18;;;;;;;;;;5056066;28;20056;-79
2021/06/23 08:32:36;;;;;;;29.00;8.25;;;;;;;;;;5043242;28;20052;-78
2021/06/23 08:35:03;;;;;;;25.75;7.60;;;;;;;;;;5043085;28;20016;-79
2021/06/23 08:37:30;;;;;;;19.77;6.80;;;;;;;;;;5044945;28;20419;-79
2021/06/23 08:39:56;;;;;;;26.08;7.00;;;;;;;;;;5046750;28;20182;-79
2021/06/23 08:42:23;;;;;;;29.33;7.82;;;;;;;;;;5059537;28;20031;-79
2021/06/23 08:44:49;;;;;;;19.73;6.38;;;;;;;;;;5047063;28;20023;-79
2021/06/23 08:47:15;;;;;;;25.08;6.57;;;;;;;;;;5047113;28;20099;-79
2021/06/23 08:49:48;;;;;;;21.98;5.93;;;;;;;;;;5054569;28;20175;-80
2021/06/23 08:52:14;;;;;;;18.80;6.15;;;;;;;;;;5047899;28;20467;-79
2021/06/23 08:54:41;;;;;;;23.77;6.80;;;;;;;;;;5045794;28;20475;-79
2021/06/23 08:57:08;;;;;;;22.33;6.90;;;;;;;;;;5045950;28;20041;-80
2021/06/23 08:59:35;;;;;;;29.58;7.82;;;;;;;;;;5044523;28;20058;-79
2021/06/23 09:02:01;;;;;;;23.02;7.13;;;;;;;;;;5042805;28;20033;-80
2021/06/23 09:04:28;;;;;;;27.95;7.85;;;;;;;;;;5048778;28;21344;-79
2021/06/23 09:06:58;;;;;;;25.65;7.90;;;;;;;;;;5046471;28;20082;-79
2021/06/23 09:09:26;;;;;;;20.98;7.95;;;;;;;;;;5047212;28;20025;-79
2021/06/23 09:11:53;;;;;;;22.85;7.57;;;;;;;;;;5060762;28;20017;-79
2021/06/23 09:14:20;;;;;;;27.42;7.80;;;;;;;;;;5046165;28;20013;-81
2021/06/23 09:17:03;;;;;;;26.30;8.43;;;;;;;;;;5048513;28;20024;-79
2021/06/23 09:19:30;;;;;;;19.50;8.00;;;;;;;;;;5044129;28;20029;-79
2021/06/23 09:21:56;;;;;;;37.25;8.45;;;;;;;;;;5047361;28;20049;-80
2021/06/23 09:24:33;;;;;;;24.67;6.88;;;;;;;;;;5044995;28;20017;-79
2021/06/23 09:27:00;;;;;;;24.50;7.60;;;;;;;;;;5045263;28;20044;-80
2021/06/23 09:29:26;;;;;;;25.98;7.68;;;;;;;;;;5053179;28;20024;-79
2021/06/23 09:32:05;;;;;;;28.35;8.27;;;;;;;;;;5062159;28;20374;-80
2021/06/23 09:34:31;;;;;;;31.95;8.00;;;;;;;;;;5063795;28;20154;-79
2021/06/23 09:36:58;;;;;;;16.30;6.38;;;;;;;;;;5064525;28;20028;-79
2021/06/23 09:39:25;;;;;;;20.17;5.95;;;;;;;;;;5055361;28;20369;-80
2021/06/23 09:41:52;;;;;;;24.02;7.00;;;;;;;;;;5047869;28;20519;-79
2021/06/23 09:44:19;;;;;;;29.02;7.75;;;;;;;;;;5059620;28;20024;-79
2021/06/23 09:46:46;;;;;;;23.13;7.05;;;;;;;;;;5062540;28;20384;-79
2021/06/23 09:49:17;;;;;;;25.77;7.18;;;;;;;;;;5061739;28;20024;-79
2021/06/23 09:52:03;;;;;;;21.65;6.30;;;;;;;;;;5062813;28;20099;-80
2021/06/23 09:54:30;;;;;;;20.88;6.80;;;;;;;;;;5045990;28;20031;-79
2021/06/23 09:57:03;;;;;;;21.13;6.38;;;;;;;;;;5056352;28;20032;-79
2021/06/23 09:59:34;;;;;;;23.38;6.80;;;;;;;;;;5046044;28;20473;-79
2021/06/23 10:02:00;;;;;;;24.92;7.72;;;;;;;;;;5044761;28;20029;-85
2021/06/23 10:04:36;;;;;;;26.13;6.88;;;;;;;;;;5043111;28;20017;-79
2021/06/23 10:07:04;;;;;;;25.35;6.55;;;;;;;;;;5045264;28;20037;-80
2021/06/23 10:09:31;;;;;;;18.15;5.97;;;;;;;;;;5044331;28;20040;-79
2021/06/23 10:12:08;;;;;;;23.75;7.30;;;;;;;;;;5042066;28;20017;-79
2021/06/23 10:14:42;;;;;;;27.98;8.55;;;;;;;;;;5043391;28;20246;-79
2021/06/23 10:17:08;;;;;;;24.65;7.68;;;;;;;;;;5051785;28;20125;-82
2021/06/23 10:19:35;;;;;;;28.88;7.80;;;;;;;;;;5063125;28;20024;-80
2021/06/23 10:22:02;;;;;;;26.20;8.32;;;;;;;;;;5063364;28;20028;-80
2021/06/23 10:24:29;;;;;;;23.27;7.78;;;;;;;;;;5063366;28;20131;-79
2021/06/23 10:26:57;;;;;;;28.50;8.93;;;;;;;;;;5061843;28;20055;-80
2021/06/23 10:29:26;;;;;;;26.95;7.18;;;;;;;;;;5063257;28;20468;-83
2021/06/23 10:31:53;;;;;;;31.48;9.18;;;;;;;;;;5063172;28;20073;-80
2021/06/23 10:34:20;;;;;;;27.90;7.93;;;;;;;;;;5063277;28;20023;-79
2021/06/23 10:36:47;;;;;;;21.85;6.60;;;;;;;;;;5063494;28;20099;-80
2021/06/23 10:39:15;;;;;;;24.25;6.78;;;;;;;;;;5061286;28;20024;-79
2021/06/23 10:41:42;;;;;;;21.80;7.65;;;;;;;;;;5063145;28;20188;-80
2021/06/23 10:44:17;;;;;;;31.42;8.45;;;;;;;;;;5062800;28;20385;-79
2021/06/23 10:46:44;;;;;;;21.40;7.18;;;;;;;;;;5062929;28;20037;-80
2021/06/23 10:49:15;;;;;;;19.80;7.32;;;;;;;;;;5061339;28;20017;-80
2021/06/23 10:51:41;;;;;;;23.95;7.28;;;;;;;;;;5061448;28;20051;-80
2021/06/23 10:54:26;;;;;;;25.85;8.00;;;;;;;;;;5062726;28;20026;-79
2021/06/23 10:56:52;;;;;;;20.45;7.00;;;;;;;;;;5062879;28;20206;-79
2021/06/23 10:59:34;;;;;;;33.60;8.73;;;;;;;;;;5062747;28;20030;-79
2021/06/23 11:02:08;;;;;;;24.15;7.88;;;;;;;;;;5060481;28;20245;-80
2021/06/23 11:04:54;;;;;;;21.65;10.00;;;;;;;;;;5056294;28;20470;-79
2021/06/23 11:07:37;;;;;;;24.55;8.07;;;;;;;;;;5055115;28;20059;-80
2021/06/23 11:10:16;;;;;;;29.35;8.40;;;;;;;;;;5062320;28;20483;-79
2021/06/23 11:12:47;;;;;;;36.25;9.38;;;;;;;;;;5061029;28;20059;-79
2021/06/23 11:15:16;;;;;;;25.17;8.02;;;;;;;;;;5061032;28;20024;-79
2021/06/23 11:17:47;;;;;;;22.98;8.00;;;;;;;;;;5062379;28;20380;-80
2021/06/23 11:20:19;;;;;;;30.35;8.63;;;;;;;;;;5062153;28;20025;-79
2021/06/23 11:22:46;;;;;;;28.23;7.90;;;;;;;;;;5061338;28;20021;-79
2021/06/23 11:25:21;;;;;;;30.13;8.15;;;;;;;;;;5060355;28;20027;-80
2021/06/23 11:28:06;;;;;;;33.10;7.40;;;;;;;;;;5062054;28;20446;-79
2021/06/23 11:30:32;;;;;;;37.47;7.97;;;;;;;;;;5048894;28;20486;-79
2021/06/23 11:33:10;;;;;;;32.28;7.57;;;;;;;;;;5062407;28;20552;-79
2021/06/23 11:35:36;;;;;;;41.33;8.73;;;;;;;;;;5046379;28;20040;-79
2021/06/23 11:38:03;;;;;;;37.55;8.18;;;;;;;;;;5042685;28;20021;-79
2021/06/23 11:40:30;;;;;;;32.00;7.05;;;;;;;;;;5043036;28;20025;-79
2021/06/23 11:42:57;;;;;;;35.25;8.10;;;;;;;;;;5042101;28;20016;-79
2021/06/23 11:45:23;;;;;;;32.63;7.68;;;;;;;;;;5057405;28;20158;-79
2021/06/23 11:47:49;;;;;;;27.48;8.20;;;;;;;;;;5046072;28;20033;-80
2021/06/23 11:50:16;;;;;;;34.35;7.55;;;;;;;;;;5044890;28;20024;-79
2021/06/23 11:52:42;;;;;;;30.20;7.25;;;;;;;;;;5046391;28;20033;-79
2021/06/23 11:55:08;;;;;;;27.70;6.80;;;;;;;;;;5046944;28;20094;-80
2021/06/23 11:57:35;;;;;;;29.50;8.18;;;;;;;;;;5048331;28;20032;-82
2021/06/23 12:00:01;;;;;;;31.70;7.70;;;;;;;;;;5061742;28;20021;-79
2021/06/23 12:02:28;;;;;;;36.28;8.30;;;;;;;;;;5048174;28;20546;-79
2021/06/23 12:04:54;;;;;;;34.63;7.78;;;;;;;;;;5043002;28;20128;-79
2021/06/23 12:07:20;;;;;;;41.60;9.30;;;;;;;;;;5043563;28;20029;-82
2021/06/23 12:09:47;;;;;;;35.28;8.15;;;;;;;;;;5045478;28;20016;-80
2021/06/23 12:12:13;;;;;;;30.90;8.15;;;;;;;;;;5043026;28;20025;-80
2021/06/23 12:14:39;;;;;;;29.75;7.30;;;;;;;;;;5044268;28;20018;-79
2021/06/23 12:17:06;;;;;;;45.60;8.18;;;;;;;;;;5041100;28;20025;-85
2021/06/23 12:19:32;;;;;;;33.72;7.68;;;;;;;;;;5042006;28;20098;-82
2021/06/23 12:21:58;;;;;;;36.28;8.32;;;;;;;;;;5042272;28;20146;-85
2021/06/23 12:24:26;;;;;;;29.77;8.75;;;;;;;;;;5043949;28;20043;-80
2021/06/23 12:26:52;;;;;;;42.65;9.25;;;;;;;;;;5046816;28;20102;-83
2021/06/23 12:29:19;;;;;;;34.25;7.75;;;;;;;;;;5059947;28;20476;-87
2021/06/23 12:31:45;;;;;;;35.92;7.97;;;;;;;;;;5049582;28;20039;-82
2021/06/23 12:34:12;;;;;;;32.28;7.75;;;;;;;;;;5046007;28;20013;-82
2021/06/23 12:36:38;;;;;;;38.88;8.85;;;;;;;;;;5041612;28;20052;-85
2021/06/23 12:39:04;;;;;;;26.17;7.30;;;;;;;;;;5055027;28;20450;-84
2021/06/23 12:41:30;;;;;;;32.08;8.68;;;;;;;;;;5048627;28;20051;-82
2021/06/23 12:43:56;;;;;;;33.28;7.53;;;;;;;;;;5046287;28;20043;-82
2021/06/23 12:46:23;;;;;;;33.42;8.65;;;;;;;;;;5042050;28;20525;-85
2021/06/23 12:48:49;;;;;;;32.22;8.30;;;;;;;;;;5042467;28;20032;-83
2021/06/23 12:51:15;;;;;;;31.58;8.52;;;;;;;;;;5050644;28;20532;-85
2021/06/23 12:53:41;;;;;;;28.40;6.97;;;;;;;;;;5060635;28;20032;-80
2021/06/23 12:56:07;;;;;;;26.10;7.30;;;;;;;;;;5061688;28;20023;-83
2021/06/23 12:58:34;;;;;;;37.75;8.65;;;;;;;;;;5061436;28;20103;-79
2021/06/23 13:01:00;;;;;;;25.85;7.30;;;;;;;;;;5061215;28;20020;-86
2021/06/23 13:03:27;;;;;;;29.75;7.25;;;;;;;;;;5061761;28;20258;-81
2021/06/23 13:05:58;;;;;;;31.80;7.82;;;;;;;;;;5059569;28;20059;-87
2021/06/23 13:08:24;;;;;;;41.65;7.90;;;;;;;;;;5061791;28;20075;-81
2021/06/23 13:10:50;;;;;;;25.02;6.75;;;;;;;;;;5057015;28;20051;-77
2021/06/23 13:13:16;;;;;;;23.30;6.50;;;;;;;;;;5052930;28;20035;-86
2021/06/23 13:15:42;;;;;;;25.48;7.18;;;;;;;;;;5061065;28;20024;-80
2021/06/23 13:18:09;;;;;;;29.48;7.85;;;;;;;;;;5058856;28;20016;-83
2021/06/23 13:20:38;;;;;;;35.38;8.45;;;;;;;;;;5059857;28;20659;-80
2021/06/23 13:23:04;;;;;;;48.33;8.57;;;;;;;;;;5061992;28;20817;-83
2021/06/23 13:25:30;;;;;;;64.95;9.93;;;;;;;;;;5048651;28;20025;-82
2021/06/23 13:27:56;;;;;;;23.65;6.93;;;;;;;;;;5056523;28;20051;-79
2021/06/23 13:30:23;;;;;;;28.83;8.60;;;;;;;;;;5062191;28;20368;-79
2021/06/23 13:32:50;;;;;;;37.67;8.60;;;;;;;;;;5046210;28;20025;-80
2021/06/23 13:35:17;;;;;;;38.72;8.30;;;;;;;;;;5045970;28;20021;-80
2021/06/23 13:37:43;;;;;;;26.00;7.40;;;;;;;;;;5049055;28;20021;-78
2021/06/23 13:40:10;;;;;;;34.08;7.85;;;;;;;;;;5051081;28;20539;-80
2021/06/23 13:42:36;;;;;;;32.63;7.85;;;;;;;;;;5059542;28;20036;-81
2021/06/23 13:45:02;;;;;;;49.05;8.85;;;;;;;;;;5048593;28;20025;-81
2021/06/23 13:47:28;;;;;;;34.60;7.78;;;;;;;;;;5046998;28;20033;-84
2021/06/23 13:49:57;;;;;;;45.38;8.75;;;;;;;;;;5058279;28;20461;-82
2021/06/23 13:52:23;;;;;;;33.65;7.65;;;;;;;;;;5062384;28;20038;-85
2021/06/23 13:54:50;;;;;;;26.55;7.40;;;;;;;;;;5063964;28;20499;-84
2021/06/23 13:57:16;;;;;;;32.60;8.10;;;;;;;;;;5047014;28;20414;-84
2021/06/23 13:59:42;;;;;;;35.03;8.02;;;;;;;;;;5045433;28;20618;-80
2021/06/23 14:02:08;;;;;;;31.33;7.78;;;;;;;;;;5053811;28;20029;-82
2021/06/23 14:04:35;;;;;;;34.30;8.38;;;;;;;;;;5051097;28;20032;-79
2021/06/23 14:07:01;;;;;;;32.40;8.27;;;;;;;;;;5064224;28;20499;-82
2021/06/23 14:09:27;;;;;;;32.33;7.68;;;;;;;;;;5064249;28;20052;-78
2021/06/23 14:11:53;;;;;;;34.20;8.27;;;;;;;;;;5059439;28;20123;-82
2021/06/23 14:14:19;;;;;;;37.63;8.48;;;;;;;;;;5052963;28;20025;-78
2021/06/23 14:16:46;;;;;;;35.60;8.15;;;;;;;;;;5057113;28;20024;-78
2021/06/23 14:19:12;;;;;;;23.85;7.97;;;;;;;;;;5063806;28;20032;-81
2021/06/23 14:21:39;;;;;;;28.15;8.00;;;;;;;;;;5063450;28;20060;-81
2021/06/23 14:24:05;;;;;;;26.20;7.90;;;;;;;;;;5063368;28;20016;-80
2021/06/23 14:26:31;;;;;;;27.42;7.65;;;;;;;;;;5063612;28;20037;-80
2021/06/23 14:28:57;;;;;;;31.30;8.35;;;;;;;;;;5062142;28;20040;-79
2021/06/23 14:31:23;;;;;;;32.30;7.68;;;;;;;;;;5063825;28;20016;-79
2021/06/23 14:33:50;;;;;;;37.80;8.70;;;;;;;;;;5063174;28;20036;-80
2021/06/23 14:36:16;;;;;;;32.60;7.68;;;;;;;;;;5060691;28;20029;-82
2021/06/23 14:38:42;;;;;;;32.78;8.38;;;;;;;;;;5051019;28;20054;-84
2021/06/23 14:41:08;;;;;;;26.30;7.45;;;;;;;;;;5045664;28;20025;-78
2021/06/23 14:43:34;;;;;;;71.63;10.32;;;;;;;;;;5056068;28;20013;-81
2021/06/23 14:46:01;;;;;;;35.10;7.70;;;;;;;;;;5043511;28;20305;-83
2021/06/23 14:48:27;;;;;;;41.20;9.10;;;;;;;;;;5055029;28;20029;-82
2021/06/23 14:50:53;;;;;;;29.95;8.23;;;;;;;;;;5044628;28;20032;-80
2021/06/23 14:53:19;;;;;;;53.17;8.77;;;;;;;;;;5053412;28;20039;-77
2021/06/23 14:55:45;;;;;;;32.63;8.18;;;;;;;;;;5053161;28;20511;-80
2021/06/23 14:58:12;;;;;;;42.47;8.43;;;;;;;;;;5054104;28;20478;-83
2021/06/23 15:00:38;;;;;;;27.98;7.45;;;;;;;;;;5050760;28;20057;-83
2021/06/23 15:03:04;;;;;;;32.33;8.15;;;;;;;;;;5046082;28;20104;-78